createdAt,value
2023-01-17T00:02:19.489Z,7.47
2023-01-17T00:05:41.817Z,7.38
2023-01-17T00:09:04.299Z,4.43
2023-01-17T00:12:08.771Z,36.20
2023-01-17T00:15:12.789Z,5.97
2023-01-17T00:21:39.691Z,7.53
2023-01-17T00:25:05.381Z,17.90
2023-01-17T00:28:09.309Z,18.55
2023-01-17T00:31:15.489Z,8.98
2023-01-17T00:34:19.275Z,15.88
2023-01-17T00:37:23.377Z,38.50
2023-01-17T00:40:27.407Z,7.27
2023-01-17T00:43:50.798Z,4.68
2023-01-17T00:47:13.169Z,53.92
2023-01-17T00:50:35.664Z,6.80
2023-01-17T00:53:57.982Z,31.70
2023-01-17T00:57:20.903Z,24.35
2023-01-17T01:00:43.986Z,25.90
2023-01-17T01:04:06.559Z,59.15
2023-01-17T01:07:28.808Z,52.35
2023-01-17T01:10:52.975Z,21.73
2023-01-17T01:14:15.519Z,18.10
2023-01-17T01:17:38.138Z,25.40
2023-01-17T01:21:00.522Z,44.40
2023-01-17T01:24:23.204Z,50.40
2023-01-17T01:27:46.280Z,38.97
2023-01-17T01:31:08.931Z,25.20
2023-01-17T01:34:13.438Z,50.65
2023-01-17T01:37:19.977Z,37.50
2023-01-17T01:40:24.661Z,38.47
2023-01-17T01:43:44.596Z,27.92
2023-01-17T01:46:51.457Z,16.80
2023-01-17T01:49:56.319Z,32.78
2023-01-17T01:53:04.843Z,28.60
2023-01-17T01:56:12.716Z,27.83
2023-01-17T01:59:20.525Z,27.27
2023-01-17T02:02:24.330Z,21.48
2023-01-17T02:05:31.732Z,69.80
2023-01-17T02:08:36.306Z,34.88
2023-01-17T02:11:42.500Z,35.45
2023-01-17T02:14:46.299Z,50.83
2023-01-17T02:18:12.815Z,40.60
2023-01-17T02:21:40.919Z,26.52
2023-01-17T02:25:22.655Z,32.72
2023-01-17T02:29:06.517Z,34.08
2023-01-17T02:32:29.064Z,28.08
2023-01-17T02:35:42.271Z,41.90
2023-01-17T02:38:55.733Z,44.45
2023-01-17T02:42:07.468Z,30.67
2023-01-17T02:45:25.873Z,25.38
2023-01-17T02:48:34.329Z,32.30
2023-01-17T02:52:20.279Z,22.65
2023-01-17T02:55:42.707Z,37.72
2023-01-17T02:59:31.864Z,25.00
2023-01-17T03:02:50.176Z,27.42
2023-01-17T03:06:17.790Z,24.45
2023-01-17T03:09:23.535Z,27.27
2023-01-17T03:12:30.138Z,26.65
2023-01-17T03:15:34.291Z,20.52
2023-01-17T03:18:39.164Z,30.42
2023-01-17T03:21:42.965Z,26.15
2023-01-17T03:24:47.554Z,23.33
2023-01-17T03:27:51.897Z,20.07
2023-01-17T03:30:56.377Z,27.65
2023-01-17T03:34:00.250Z,23.03
2023-01-17T03:37:04.670Z,23.13
2023-01-17T03:40:09.696Z,42.38
2023-01-17T03:43:14.110Z,19.33
2023-01-17T03:46:24.902Z,35.67
2023-01-17T03:49:30.790Z,37.38
2023-01-17T03:52:34.741Z,30.98
2023-01-17T03:55:39.122Z,23.05
2023-01-17T03:58:46.626Z,21.60
2023-01-17T04:01:51.638Z,20.10
2023-01-17T04:04:55.543Z,31.70
2023-01-17T04:08:00.364Z,28.17
2023-01-17T04:11:04.190Z,21.95
2023-01-17T04:14:08.521Z,19.73
2023-01-17T04:17:13.793Z,15.48
2023-01-17T04:20:37.117Z,16.00
2023-01-17T04:23:40.925Z,17.50
2023-01-17T04:26:45.451Z,28.27
2023-01-17T04:29:49.389Z,16.70
2023-01-17T04:32:54.120Z,25.05
2023-01-17T04:36:00.607Z,28.77
2023-01-17T04:39:07.435Z,20.87
2023-01-17T04:42:11.189Z,15.35
2023-01-17T04:45:16.386Z,33.97
2023-01-17T04:48:20.518Z,24.67
2023-01-17T04:51:24.936Z,25.92
2023-01-17T04:54:29.045Z,24.02
2023-01-17T04:57:34.003Z,23.25
2023-01-17T05:00:37.850Z,33.27
2023-01-17T05:03:42.727Z,24.88
2023-01-17T05:06:47.002Z,46.58
2023-01-17T05:09:51.626Z,17.47
2023-01-17T05:13:00.098Z,11.07
2023-01-17T05:16:07.756Z,25.88
2023-01-17T05:19:11.713Z,26.73
2023-01-17T05:22:16.512Z,60.63
2023-01-17T05:25:20.721Z,60.72
2023-01-17T05:28:25.397Z,26.42
2023-01-17T05:31:29.227Z,57.92
2023-01-17T05:34:36.380Z,42.30
2023-01-17T05:37:40.471Z,39.25
2023-01-17T05:40:44.944Z,48.95
2023-01-17T05:43:48.669Z,132.03
2023-01-17T05:46:53.098Z,122.25
2023-01-17T05:49:57.127Z,40.97
2023-01-17T05:53:06.809Z,44.80
2023-01-17T05:56:10.551Z,31.83
2023-01-17T05:59:18.758Z,14.57
2023-01-17T06:02:24.434Z,22.88
2023-01-17T06:05:30.504Z,24.42
2023-01-17T06:08:34.752Z,18.73
2023-01-17T06:11:39.118Z,19.92
2023-01-17T06:14:42.963Z,19.48
2023-01-17T06:17:47.549Z,19.43
2023-01-17T06:20:55.469Z,21.80
2023-01-17T06:23:59.754Z,24.25
2023-01-17T06:27:03.684Z,16.58
2023-01-17T06:30:09.142Z,15.70
2023-01-17T06:33:14.114Z,17.35
2023-01-17T06:36:18.929Z,21.50
2023-01-17T06:39:22.833Z,41.07
2023-01-17T06:42:27.144Z,58.53
2023-01-17T06:45:32.351Z,18.05
2023-01-17T06:48:36.938Z,28.75
2023-01-17T06:51:43.455Z,26.33
2023-01-17T06:54:47.976Z,21.88
2023-01-17T06:57:52.281Z,27.45
2023-01-17T07:00:56.740Z,32.00
2023-01-17T07:04:00.708Z,23.53
2023-01-17T07:07:05.612Z,20.33
2023-01-17T07:10:10.802Z,21.00
2023-01-17T07:13:15.600Z,26.27
2023-01-17T07:16:20.068Z,26.85
2023-01-17T07:19:25.453Z,30.48
2023-01-17T07:22:29.301Z,43.53
2023-01-17T07:25:33.852Z,26.95
2023-01-17T07:28:37.701Z,24.65
2023-01-17T07:31:42.292Z,25.83
2023-01-17T07:34:46.165Z,25.83
2023-01-17T07:37:52.425Z,25.75
2023-01-17T07:41:00.439Z,22.88
2023-01-17T07:44:07.731Z,24.58
2023-01-17T07:47:12.138Z,23.48
2023-01-17T07:50:16.409Z,31.35
2023-01-17T07:53:20.220Z,27.42
2023-01-17T07:56:24.892Z,18.87
2023-01-17T07:59:28.947Z,28.38
2023-01-17T08:02:35.936Z,34.30
2023-01-17T08:05:39.734Z,28.65
2023-01-17T08:08:44.764Z,24.38
2023-01-17T08:11:48.580Z,24.73
2023-01-17T08:14:53.306Z,23.20
2023-01-17T08:17:58.480Z,10.40
2023-01-17T08:21:03.041Z,22.65
2023-01-17T08:24:07.156Z,50.33
2023-01-17T08:27:11.716Z,42.33
2023-01-17T08:30:16.083Z,34.80
2023-01-17T08:33:21.919Z,214.80
2023-01-17T08:36:26.684Z,187.32
2023-01-17T08:39:31.656Z,51.78
2023-01-17T08:42:40.471Z,143.27
2023-01-17T08:45:49.329Z,74.20
2023-01-17T08:48:59.492Z,144.93
2023-01-17T08:52:06.246Z,246.85
2023-01-17T08:55:12.374Z,355.88
2023-01-17T08:58:17.951Z,154.70
2023-01-17T09:01:21.839Z,208.93
2023-01-17T09:04:26.944Z,82.73
2023-01-17T09:07:30.966Z,67.72
2023-01-17T09:10:35.680Z,70.27
2023-01-17T09:13:40.363Z,34.30
2023-01-17T09:19:49.449Z,35.55
2023-01-17T09:25:59.204Z,26.95
2023-01-17T09:29:04.036Z,31.65
2023-01-17T09:32:07.792Z,20.70
2023-01-17T09:35:12.815Z,14.63
2023-01-17T09:38:18.024Z,24.80
2023-01-17T09:41:29.540Z,22.90
2023-01-17T09:44:42.221Z,17.00
2023-01-17T09:47:53.874Z,26.77
2023-01-17T09:51:20.742Z,22.80
2023-01-17T09:54:28.402Z,27.95
2023-01-17T09:57:55.140Z,25.02
2023-01-17T10:01:04.552Z,34.03
2023-01-17T10:04:26.558Z,24.48
2023-01-17T10:07:54.725Z,22.05
2023-01-17T10:11:55.916Z,22.10
2023-01-17T10:15:08.467Z,34.45
2023-01-17T10:18:33.164Z,37.92
2023-01-17T10:21:43.109Z,48.78
2023-01-17T10:25:05.101Z,73.22
2023-01-17T10:28:15.380Z,15.65
2023-01-17T10:31:26.112Z,20.13
2023-01-17T10:34:44.661Z,45.58
2023-01-17T10:37:51.027Z,22.65
2023-01-17T10:41:19.568Z,24.83
2023-01-17T10:44:52.497Z,19.95
2023-01-17T10:48:13.918Z,22.08
2023-01-17T10:51:25.800Z,14.75
2023-01-17T10:54:52.606Z,18.80
2023-01-17T10:57:58.939Z,14.95
2023-01-17T11:01:20.692Z,23.25
2023-01-17T11:04:38.325Z,18.08
2023-01-17T11:08:16.003Z,17.20
2023-01-17T11:11:22.121Z,18.10
2023-01-17T11:14:27.945Z,19.10
2023-01-17T11:17:32.667Z,30.42
2023-01-17T11:20:44.339Z,23.25
2023-01-17T11:24:02.141Z,65.20
2023-01-17T11:27:08.986Z,30.13
2023-01-17T11:30:19.450Z,20.10
2023-01-17T11:33:54.874Z,42.17
2023-01-17T11:37:23.523Z,40.33
2023-01-17T11:40:29.968Z,45.75
2023-01-17T11:43:33.869Z,51.75
2023-01-17T11:46:39.850Z,64.18
2023-01-17T11:52:53.139Z,34.00
2023-01-17T11:55:58.299Z,25.90
2023-01-17T11:59:31.038Z,41.42
2023-01-17T12:03:08.600Z,36.28
2023-01-17T12:06:56.165Z,44.95
2023-01-17T12:10:07.210Z,67.72
2023-01-17T12:13:41.322Z,60.40
2023-01-17T12:16:56.714Z,109.65
2023-01-17T12:20:06.852Z,40.35
2023-01-17T12:23:27.793Z,58.90
2023-01-17T12:26:43.626Z,46.38
2023-01-17T12:30:26.411Z,39.28
2023-01-17T12:33:40.272Z,65.47
2023-01-17T12:37:25.248Z,84.95
2023-01-17T12:40:41.125Z,345.13
2023-01-17T12:43:46.586Z,114.85
2023-01-17T12:47:04.600Z,110.85
2023-01-17T12:50:47.116Z,156.27
2023-01-17T12:54:00.357Z,146.02
2023-01-17T12:57:14.115Z,203.43
2023-01-17T13:00:25.325Z,315.08
2023-01-17T13:03:44.868Z,60.58
2023-01-17T13:07:13.722Z,65.30
2023-01-17T13:10:38.893Z,89.82
2023-01-17T13:13:44.422Z,571.53
2023-01-17T13:20:08.731Z,259.20
2023-01-17T13:23:29.016Z,154.98
2023-01-17T13:26:53.779Z,140.85
2023-01-17T13:30:33.150Z,256.50
2023-01-17T13:33:59.633Z,135.65
2023-01-17T13:37:34.234Z,57.50
2023-01-17T13:41:02.598Z,69.75
2023-01-17T13:44:25.319Z,53.85
2023-01-17T13:47:30.579Z,61.38
2023-01-17T13:50:58.502Z,206.10
2023-01-17T13:54:03.998Z,171.30
2023-01-17T13:57:29.911Z,242.20
2023-01-17T14:00:37.234Z,197.27
2023-01-17T14:03:59.361Z,56.30
2023-01-17T14:07:20.639Z,62.67
2023-01-17T14:10:31.111Z,70.60
2023-01-17T14:13:40.155Z,54.00
2023-01-17T14:16:46.260Z,81.70
2023-01-17T14:19:56.884Z,86.38
2023-01-17T14:23:16.159Z,225.90
2023-01-17T14:26:22.998Z,302.77
2023-01-17T14:29:48.184Z,136.60
2023-01-17T14:33:06.032Z,113.37
2023-01-17T14:36:33.979Z,128.15
2023-01-17T14:39:48.882Z,109.45
2023-01-17T14:43:02.259Z,115.55
2023-01-17T14:46:10.186Z,106.75
2023-01-17T14:49:26.711Z,242.02
2023-01-17T14:52:30.752Z,101.15
2023-01-17T14:55:35.421Z,112.38
2023-01-17T14:58:42.506Z,113.83
2023-01-17T15:02:06.747Z,115.57
2023-01-17T15:05:15.149Z,97.28
2023-01-17T15:08:23.114Z,80.13
2023-01-17T15:11:33.574Z,86.28
2023-01-17T15:14:42.391Z,96.50
2023-01-17T15:17:46.677Z,83.38
2023-01-17T15:20:56.969Z,80.53
2023-01-17T15:24:04.644Z,84.70
2023-01-17T15:27:09.311Z,63.95
2023-01-17T15:30:16.808Z,67.35
2023-01-17T15:33:21.852Z,78.32
2023-01-17T15:36:33.670Z,66.30
2023-01-17T15:39:42.047Z,64.57
2023-01-17T15:42:52.745Z,127.15
2023-01-17T15:45:58.192Z,78.38
2023-01-17T15:49:19.304Z,70.65
2023-01-17T15:52:23.800Z,83.10
2023-01-17T15:55:35.936Z,103.75
2023-01-17T15:58:40.359Z,87.68
2023-01-17T16:01:53.255Z,102.33
2023-01-17T16:04:58.039Z,104.13
2023-01-17T16:08:05.513Z,128.45
2023-01-17T16:11:12.273Z,114.80
2023-01-17T16:14:16.180Z,162.05
2023-01-17T16:17:20.397Z,130.33
2023-01-17T16:20:51.037Z,133.32
2023-01-17T16:23:55.969Z,97.93
2023-01-17T16:27:00.010Z,99.88
2023-01-17T16:30:04.349Z,99.10
2023-01-17T16:33:12.641Z,93.55
2023-01-17T16:36:17.689Z,94.53
2023-01-17T16:39:22.265Z,107.03
2023-01-17T16:42:28.509Z,75.30
2023-01-17T16:45:40.019Z,75.00
2023-01-17T16:48:44.490Z,66.07
2023-01-17T16:51:48.705Z,98.73
2023-01-17T16:54:53.590Z,87.90
2023-01-17T16:57:59.149Z,98.70
2023-01-17T17:01:03.367Z,83.53
2023-01-17T17:04:07.401Z,101.22
2023-01-17T17:07:11.865Z,81.10
2023-01-17T17:10:20.936Z,105.23
2023-01-17T17:13:25.133Z,110.22
2023-01-17T17:16:34.843Z,76.75
2023-01-17T17:19:40.387Z,93.07
2023-01-17T17:25:56.798Z,79.85
2023-01-17T17:29:01.610Z,99.80
2023-01-17T17:32:07.796Z,77.40
2023-01-17T17:35:11.726Z,100.60
2023-01-17T17:38:17.144Z,83.63
2023-01-17T17:41:24.534Z,91.38
2023-01-17T17:44:28.786Z,79.57
2023-01-17T17:47:33.041Z,64.03
2023-01-17T17:50:37.439Z,55.78
2023-01-17T17:53:41.508Z,59.70
2023-01-17T17:56:49.044Z,58.15
2023-01-17T17:59:56.889Z,64.05
2023-01-17T18:03:00.964Z,88.63
2023-01-17T18:06:13.194Z,84.95
2023-01-17T18:09:17.698Z,73.32
2023-01-17T18:12:21.811Z,67.43
2023-01-17T18:15:26.011Z,77.70
2023-01-17T18:18:32.239Z,56.05
2023-01-17T18:21:39.094Z,66.45
2023-01-17T18:24:43.196Z,78.18
2023-01-17T18:27:47.702Z,82.00
2023-01-17T18:30:51.634Z,121.18
2023-01-17T18:33:57.189Z,97.15
2023-01-17T18:37:01.393Z,132.85
2023-01-17T18:40:07.798Z,149.15
2023-01-17T18:43:12.136Z,174.32
2023-01-17T18:46:17.899Z,208.52
2023-01-17T18:49:22.228Z,120.97
2023-01-17T18:52:26.324Z,139.60
2023-01-17T18:55:30.293Z,108.10
2023-01-17T18:58:39.000Z,127.15
2023-01-17T19:05:22.531Z,112.85
2023-01-17T19:08:26.605Z,118.85
2023-01-17T19:11:30.906Z,92.53
2023-01-17T19:14:35.156Z,86.07
2023-01-17T19:17:39.242Z,112.28
2023-01-17T19:20:43.360Z,71.22
2023-01-17T19:23:47.820Z,52.35
2023-01-17T19:26:53.900Z,100.82
2023-01-17T19:29:57.892Z,76.00
2023-01-17T19:33:02.094Z,85.95
2023-01-17T19:36:09.805Z,94.63
2023-01-17T19:39:14.166Z,68.68
2023-01-17T19:42:18.331Z,65.70
2023-01-17T19:45:22.823Z,53.75
2023-01-17T19:48:28.517Z,94.30
2023-01-17T19:51:32.800Z,54.78
2023-01-17T19:54:36.892Z,65.67
2023-01-17T19:57:41.198Z,47.85
2023-01-17T20:00:46.736Z,63.95
2023-01-17T20:03:54.538Z,68.20
2023-01-17T20:06:59.425Z,51.47
2023-01-17T20:10:03.716Z,40.20
2023-01-17T20:13:07.772Z,21.33
2023-01-17T20:16:15.207Z,31.77
2023-01-17T20:19:19.314Z,34.45
2023-01-17T20:22:23.637Z,35.47
2023-01-17T20:25:27.666Z,40.30
2023-01-17T20:28:34.261Z,17.10
2023-01-17T20:31:39.231Z,35.58
2023-01-17T20:34:45.409Z,32.50
2023-01-17T20:37:53.111Z,26.95
2023-01-17T20:40:57.222Z,42.85
2023-01-17T20:44:02.700Z,40.67
2023-01-17T20:47:07.465Z,75.72
2023-01-17T20:50:12.782Z,60.33
2023-01-17T20:53:17.321Z,80.95
2023-01-17T20:56:21.800Z,60.92
2023-01-17T21:02:31.713Z,47.40
2023-01-17T21:05:35.883Z,44.22
2023-01-17T21:08:42.568Z,88.00
2023-01-17T21:11:46.834Z,83.43
2023-01-17T21:14:52.049Z,83.87
2023-01-17T21:17:56.460Z,90.57
2023-01-17T21:21:23.997Z,63.72
2023-01-17T21:24:29.331Z,84.90
2023-01-17T21:27:33.405Z,79.50
2023-01-17T21:30:37.651Z,47.75
2023-01-17T21:33:41.587Z,60.63
2023-01-17T21:36:45.659Z,87.68
2023-01-17T21:39:55.598Z,138.03
2023-01-17T21:42:59.760Z,78.40
2023-01-17T21:46:05.702Z,60.40
2023-01-17T21:49:12.536Z,45.63
2023-01-17T21:52:19.567Z,25.50
2023-01-17T21:55:45.892Z,62.80
2023-01-17T21:58:54.603Z,152.70
2023-01-17T22:01:59.085Z,46.03
2023-01-17T22:05:03.375Z,137.90
2023-01-17T22:08:13.296Z,76.88
2023-01-17T22:11:19.904Z,59.05
2023-01-17T22:14:24.124Z,45.70
2023-01-17T22:17:30.537Z,52.20
2023-01-17T22:20:35.384Z,57.70
2023-01-17T22:23:40.661Z,86.28
2023-01-17T22:26:44.688Z,43.88
2023-01-17T22:29:48.668Z,37.07
2023-01-17T22:32:52.937Z,59.30
2023-01-17T22:36:00.566Z,78.10
2023-01-17T22:39:05.206Z,78.57
2023-01-17T22:42:09.275Z,47.55
2023-01-17T22:45:13.802Z,34.50
2023-01-17T22:48:17.797Z,75.03
2023-01-17T22:51:24.153Z,29.42
2023-01-17T22:54:28.322Z,50.13
2023-01-17T23:00:36.637Z,55.65
2023-01-17T23:03:41.751Z,85.93
2023-01-17T23:06:45.980Z,93.70
2023-01-17T23:09:50.077Z,39.40
2023-01-17T23:12:54.020Z,65.97
2023-01-17T23:16:16.711Z,80.50
2023-01-17T23:19:23.955Z,70.28
2023-01-17T23:22:30.719Z,106.18
2023-01-17T23:25:34.624Z,92.60
2023-01-17T23:28:38.722Z,116.30
2023-01-17T23:31:42.632Z,94.17
2023-01-17T23:34:48.561Z,134.05
2023-01-17T23:38:11.029Z,123.72
2023-01-17T23:41:33.469Z,94.95
2023-01-17T23:44:37.365Z,29.60
2023-01-17T23:47:41.528Z,75.93
2023-01-17T23:50:47.816Z,84.33
2023-01-17T23:53:57.872Z,35.38
2023-01-17T23:57:02.974Z,74.88
